Time;durP1;ratioP1;P1;durP2;ratioP2;P2;SDS_P1;SDS_P2;PMS_P1;PMS_P2;Temp;Humidity;BMP_temperature;BMP_pressure;BME280_temperature;BME280_humidity;BME280_pressure;Samples;Min_cycle;Max_cycle;Signal;HPM_P1;HPM_P2
2023/07/15 00:01:15;;;;;;;;;;;;;;;;;;5059298;28;19921;-77
2023/07/15 00:04:02;;;;;;;;;;;;;;;;;;5062402;28;19912;-79
2023/07/15 00:06:48;;;;;;;;;;;;;;;;;;5062084;28;19927;-77
2023/07/15 00:09:35;;;;;;;;;;;;;;;;;;5050020;28;19926;-76
2023/07/15 00:12:22;;;;;;;;;;;;;;;;;;5057058;28;19923;-77
2023/07/15 00:15:09;;;;;;;;;;;;;;;;;;5060225;28;19917;-78
2023/07/15 00:17:55;;;;;;;;;;;;;;;;;;5059800;28;20395;-77
2023/07/15 00:20:42;;;;;;;;;;;;;;;;;;5050667;28;19927;-77
2023/07/15 00:23:29;;;;;;;;;;;;;;;;;;5049450;28;19947;-78
2023/07/15 00:26:15;;;;;;;;;;;;;;;;;;5058364;28;20422;-77
2023/07/15 00:29:03;;;;;;;;;;;;;;;;;;5052926;28;19923;-78
2023/07/15 00:31:50;;;;;;;;;;;;;;;;;;5057337;28;19924;-77
2023/07/15 00:34:36;;;;;;;;;;;;;;;;;;5050051;28;19917;-77
2023/07/15 00:37:23;;;;;;;;;;;;;;;;;;5056217;28;23657;-77
2023/07/15 00:40:10;;;;;;;;;;;;;;;;;;5059684;28;19924;-77
2023/07/15 00:42:56;;;;;;;;;;;;;;;;;;5056727;28;21250;-77
2023/07/15 00:45:43;;;;;;;;;;;;;;;;;;5056902;28;19924;-78
2023/07/15 00:48:29;;;;;;;;;;;;;;;;;;5053413;28;19929;-78
2023/07/15 00:51:16;;;;;;;;;;;;;;;;;;5051912;28;19920;-77
2023/07/15 00:54:03;;;;;;;;;;;;;;;;;;5049095;28;19941;-76
2023/07/15 00:56:49;;;;;;;;;;;;;;;;;;5055421;28;20589;-77
2023/07/15 00:59:38;;;;;;;;;;;;;;;;;;5049001;28;19925;-78
2023/07/15 01:02:25;;;;;;;;;;;;;;;;;;5054490;28;19920;-77
2023/07/15 01:05:11;;;;;;;;;;;;;;;;;;5059533;28;19916;-77
2023/07/15 01:07:58;;;;;;;;;;;;;;;;;;5057330;28;19924;-77
2023/07/15 01:10:44;;;;;;;;;;;;;;;;;;5054917;28;19924;-77
2023/07/15 01:13:31;;;;;;;;;;;;;;;;;;5050424;28;19924;-77
2023/07/15 01:16:17;;;;;;;;;;;;;;;;;;5053854;28;20610;-77
2023/07/15 01:19:04;;;;;;;;;;;;;;;;;;5060592;28;19931;-78
2023/07/15 01:21:50;;;;;;;;;;;;;;;;;;5062933;28;19920;-77
2023/07/15 01:24:37;;;;;;;;;;;;;;;;;;5061716;28;19923;-77
2023/07/15 01:27:26;;;;;;;;;;;;;;;;;;5035090;28;19933;-77
2023/07/15 01:30:13;;;;;;;;;;;;;;;;;;5026520;28;20236;-75
2023/07/15 01:32:59;;;;;;;;;;;;;;;;;;5040411;28;19935;-77
2023/07/15 01:35:46;;;;;;;;;;;;;;;;;;5030624;28;19917;-77
2023/07/15 01:38:33;;;;;;;;;;;;;;;;;;5032532;28;19931;-80
2023/07/15 01:41:19;;;;;;;;;;;;;;;;;;5046688;28;19935;-77
2023/07/15 01:44:06;;;;;;;;;;;;;;;;;;5035717;28;19939;-77
2023/07/15 01:46:52;;;;;;;;;;;;;;;;;;5068814;28;19927;-76
2023/07/15 01:49:39;;;;;;;;;;;;;;;;;;5066280;28;20593;-76
2023/07/15 01:52:26;;;;;;;;;;;;;;;;;;5046024;28;20653;-76
2023/07/15 01:55:12;;;;;;;;;;;;;;;;;;5077122;28;20410;-76
2023/07/15 01:57:58;;;;;;;;;;;;;;;;;;5063110;28;19924;-76
2023/07/15 02:00:45;;;;;;;;;;;;;;;;;;5075814;28;19916;-76
2023/07/15 02:03:31;;;;;;;;;;;;;;;;;;5050377;28;20609;-77
2023/07/15 02:06:18;;;;;;;;;;;;;;;;;;5064090;28;20287;-76
2023/07/15 02:09:07;;;;;;;;;;;;;;;;;;5064222;28;19916;-77
2023/07/15 02:11:54;;;;;;;;;;;;;;;;;;5068204;28;20356;-76
2023/07/15 02:14:40;;;;;;;;;;;;;;;;;;5050528;28;19917;-76
2023/07/15 02:17:27;;;;;;;;;;;;;;;;;;5065864;28;20300;-75
2023/07/15 02:20:13;;;;;;;;;;;;;;;;;;5056871;28;19921;-76
2023/07/15 02:23:00;;;;;;;;;;;;;;;;;;5068368;28;19924;-76
2023/07/15 02:25:47;;;;;;;;;;;;;;;;;;5063355;28;20652;-77
2023/07/15 02:28:34;;;;;;;;;;;;;;;;;;5047895;28;20284;-77
2023/07/15 02:31:20;;;;;;;;;;;;;;;;;;5059763;28;20023;-77
2023/07/15 02:34:07;;;;;;;;;;;;;;;;;;5064754;28;19952;-77
2023/07/15 02:36:53;;;;;;;;;;;;;;;;;;5057364;28;19916;-76
2023/07/15 02:39:40;;;;;;;;;;;;;;;;;;5060866;28;19935;-77
2023/07/15 02:42:26;;;;;;;;;;;;;;;;;;5065444;28;19942;-77
2023/07/15 02:45:13;;;;;;;;;;;;;;;;;;5051649;28;19916;-77
2023/07/15 02:48:00;;;;;;;;;;;;;;;;;;5061841;28;19931;-77
2023/07/15 02:50:46;;;;;;;;;;;;;;;;;;5050891;28;19952;-77
2023/07/15 02:53:33;;;;;;;;;;;;;;;;;;5042807;28;19916;-77
2023/07/15 02:56:19;;;;;;;;;;;;;;;;;;5061162;28;20394;-78
2023/07/15 02:59:06;;;;;;;;;;;;;;;;;;5052420;28;19935;-77
2023/07/15 03:01:52;;;;;;;;;;;;;;;;;;5036770;28;19925;-77
2023/07/15 03:04:39;;;;;;;;;;;;;;;;;;5070033;28;19920;-77
2023/07/15 03:07:25;;;;;;;;;;;;;;;;;;5055782;28;19923;-75
2023/07/15 03:10:12;;;;;;;;;;;;;;;;;;5058659;28;19966;-76
2023/07/15 03:12:58;;;;;;;;;;;;;;;;;;5055512;28;20376;-76
2023/07/15 03:15:45;;;;;;;;;;;;;;;;;;5050333;28;19920;-77
2023/07/15 03:18:31;;;;;;;;;;;;;;;;;;5062627;28;19944;-77
2023/07/15 03:21:18;;;;;;;;;;;;;;;;;;5055049;28;19925;-77
2023/07/15 03:24:04;;;;;;;;;;;;;;;;;;5057225;28;19923;-77
2023/07/15 03:26:51;;;;;;;;;;;;;;;;;;5059467;28;19936;-77
2023/07/15 03:29:37;;;;;;;;;;;;;;;;;;5060647;28;19923;-76
2023/07/15 03:32:24;;;;;;;;;;;;;;;;;;5062584;28;20380;-76
2023/07/15 03:35:10;;;;;;;;;;;;;;;;;;5058098;28;20459;-76
2023/07/15 03:37:57;;;;;;;;;;;;;;;;;;5060088;28;19935;-75
2023/07/15 03:40:43;;;;;;;;;;;;;;;;;;5064845;28;19924;-74
2023/07/15 03:43:30;;;;;;;;;;;;;;;;;;5053284;28;20376;-75
2023/07/15 03:46:17;;;;;;;;;;;;;;;;;;5064269;28;19922;-75
2023/07/15 03:49:03;;;;;;;;;;;;;;;;;;5053761;28;19935;-77
2023/07/15 03:51:50;;;;;;;;;;;;;;;;;;5063766;28;19927;-76
2023/07/15 03:54:36;;;;;;;;;;;;;;;;;;5063009;28;19924;-76
2023/07/15 03:57:23;;;;;;;;;;;;;;;;;;5062103;28;19927;-76
2023/07/15 04:00:17;;;;;;;;;;;;;;;;;;5063481;28;20289;-75
2023/07/15 04:03:03;;;;;;;;;;;;;;;;;;5067034;28;19923;-77
2023/07/15 04:05:50;;;;;;;;;;;;;;;;;;5063895;28;19931;-75
2023/07/15 04:08:36;;;;;;;;;;;;;;;;;;5055245;28;19936;-74
2023/07/15 04:11:23;;;;;;;;;;;;;;;;;;5061149;28;24368;-76
2023/07/15 04:14:09;;;;;;;;;;;;;;;;;;5058239;28;19964;-77
2023/07/15 04:16:56;;;;;;;;;;;;;;;;;;5043526;28;19920;-76
2023/07/15 04:19:42;;;;;;;;;;;;;;;;;;5053959;28;20430;-76
2023/07/15 04:22:29;;;;;;;;;;;;;;;;;;5062988;28;20016;-76
2023/07/15 04:25:15;;;;;;;;;;;;;;;;;;5057663;28;20375;-76
2023/07/15 04:28:02;;;;;;;;;;;;;;;;;;5057255;28;19935;-75
2023/07/15 04:30:49;;;;;;;;;;;;;;;;;;5063145;28;19923;-74
2023/07/15 04:33:35;;;;;;;;;;;;;;;;;;5055143;28;20296;-75
2023/07/15 04:36:22;;;;;;;;;;;;;;;;;;5060830;28;19926;-75
2023/07/15 04:39:08;;;;;;;;;;;;;;;;;;5061494;28;20380;-75
2023/07/15 04:41:55;;;;;;;;;;;;;;;;;;5054946;28;19944;-76
2023/07/15 04:44:41;;;;;;;;;;;;;;;;;;5057603;28;19916;-76
2023/07/15 04:47:28;;;;;;;;;;;;;;;;;;5053537;28;19927;-76
2023/07/15 04:50:14;;;;;;;;;;;;;;;;;;5059510;28;20296;-76
2023/07/15 04:53:01;;;;;;;;;;;;;;;;;;5062303;28;19921;-76
2023/07/15 04:55:47;;;;;;;;;;;;;;;;;;5062350;28;19928;-76
2023/07/15 04:58:34;;;;;;;;;;;;;;;;;;5060525;28;19920;-76
2023/07/15 05:01:22;;;;;;;;;;;;;;;;;;5056690;28;19928;-76
2023/07/15 05:04:08;;;;;;;;;;;;;;;;;;5061858;28;19916;-76
2023/07/15 05:06:55;;;;;;;;;;;;;;;;;;5045680;28;20026;-76
2023/07/15 05:09:42;;;;;;;;;;;;;;;;;;5041397;28;20366;-77
2023/07/15 05:12:29;;;;;;;;;;;;;;;;;;5052679;28;19919;-76
2023/07/15 05:15:15;;;;;;;;;;;;;;;;;;5061496;28;19916;-76
2023/07/15 05:18:02;;;;;;;;;;;;;;;;;;5057581;28;19920;-76
2023/07/15 05:20:50;;;;;;;;;;;;;;;;;;5064164;28;19927;-76
2023/07/15 05:23:37;;;;;;;;;;;;;;;;;;5044815;28;19922;-76
2023/07/15 05:26:23;;;;;;;;;;;;;;;;;;5056635;28;19933;-75
2023/07/15 05:29:10;;;;;;;;;;;;;;;;;;5058572;28;19913;-77
2023/07/15 05:31:56;;;;;;;;;;;;;;;;;;5046909;28;19917;-76
2023/07/15 05:34:43;;;;;;;;;;;;;;;;;;5043023;28;19924;-76
2023/07/15 05:37:29;;;;;;;;;;;;;;;;;;5044730;28;19923;-76
2023/07/15 05:40:16;;;;;;;;;;;;;;;;;;5058841;28;19939;-76
2023/07/15 05:43:02;;;;;;;;;;;;;;;;;;5060923;28;19916;-75
2023/07/15 05:45:49;;;;;;;;;;;;;;;;;;5049710;28;19923;-75
2023/07/15 05:48:35;;;;;;;;;;;;;;;;;;5059202;28;20475;-75
2023/07/15 05:51:22;;;;;;;;;;;;;;;;;;5061731;28;19917;-75
2023/07/15 05:54:08;;;;;;;;;;;;;;;;;;5039590;28;19917;-76
2023/07/15 05:56:54;;;;;;;;;;;;;;;;;;5064301;28;19913;-75
2023/07/15 05:59:41;;;;;;;;;;;;;;;;;;5066796;28;19939;-76
2023/07/15 06:02:27;;;;;;;;;;;;;;;;;;5060512;28;19923;-76
2023/07/15 06:05:14;;;;;;;;;;;;;;;;;;5059060;28;19916;-76
2023/07/15 06:08:00;;;;;;;;;;;;;;;;;;5036555;28;19917;-76
2023/07/15 06:10:47;;;;;;;;;;;;;;;;;;5040200;28;19926;-75
2023/07/15 06:13:34;;;;;;;;;;;;;;;;;;5057655;28;19924;-76
2023/07/15 06:16:20;;;;;;;;;;;;;;;;;;5053551;28;20144;-76
2023/07/15 06:19:07;;;;;;;;;;;;;;;;;;5060034;28;19932;-76
2023/07/15 06:21:53;;;;;;;;;;;;;;;;;;5058366;28;20470;-76
2023/07/15 06:24:40;;;;;;;;;;;;;;;;;;5046194;28;20491;-76
2023/07/15 06:27:26;;;;;;;;;;;;;;;;;;5055708;28;19933;-75
2023/07/15 06:30:13;;;;;;;;;;;;;;;;;;5050724;28;19917;-76
2023/07/15 06:33:00;;;;;;;;;;;;;;;;;;5070763;28;19917;-76
2023/07/15 06:35:49;;;;;;;;;;;;;;;;;;5056419;28;20296;-76
2023/07/15 06:38:35;;;;;;;;;;;;;;;;;;5067350;28;19938;-75
2023/07/15 06:41:22;;;;;;;;;;;;;;;;;;5057509;28;19928;-76
2023/07/15 06:44:08;;;;;;;;;;;;;;;;;;5051909;28;19924;-76
2023/07/15 06:46:55;;;;;;;;;;;;;;;;;;5062605;28;19920;-75
2023/07/15 06:49:41;;;;;;;;;;;;;;;;;;5063587;28;19944;-76
2023/07/15 06:52:28;;;;;;;;;;;;;;;;;;5047560;28;19921;-75
2023/07/15 06:55:15;;;;;;;;;;;;;;;;;;5057490;28;19917;-75
2023/07/15 06:58:01;;;;;;;;;;;;;;;;;;5057952;28;20583;-75
2023/07/15 07:00:48;;;;;;;;;;;;;;;;;;5059475;28;20651;-75
2023/07/15 07:03:34;;;;;;;;;;;;;;;;;;5060146;28;19927;-76
2023/07/15 07:06:21;;;;;;;;;;;;;;;;;;5057844;28;20408;-76
2023/07/15 07:09:07;;;;;;;;;;;;;;;;;;5041221;28;19920;-78
2023/07/15 07:11:54;;;;;;;;;;;;;;;;;;5059749;28;19921;-76
2023/07/15 07:14:40;;;;;;;;;;;;;;;;;;5051876;28;21054;-76
2023/07/15 07:17:27;;;;;;;;;;;;;;;;;;5054306;28;19928;-76
2023/07/15 07:20:13;;;;;;;;;;;;;;;;;;5061797;28;20559;-76
2023/07/15 07:23:00;;;;;;;;;;;;;;;;;;5058733;28;19949;-77
2023/07/15 07:25:46;;;;;;;;;;;;;;;;;;5060749;28;19935;-76
2023/07/15 07:28:32;;;;;;;;;;;;;;;;;;5066802;28;19943;-76
2023/07/15 07:31:19;;;;;;;;;;;;;;;;;;5056342;28;19924;-75
2023/07/15 07:34:05;;;;;;;;;;;;;;;;;;5058015;28;19924;-76
2023/07/15 07:36:52;;;;;;;;;;;;;;;;;;5066971;28;19927;-74
2023/07/15 07:39:38;;;;;;;;;;;;;;;;;;5061023;28;19925;-75
2023/07/15 07:42:25;;;;;;;;;;;;;;;;;;5062694;28;19927;-75
2023/07/15 07:45:11;;;;;;;;;;;;;;;;;;5061271;28;19920;-75
2023/07/15 07:47:58;;;;;;;;;;;;;;;;;;5047577;28;19916;-78
2023/07/15 07:50:44;;;;;;;;;;;;;;;;;;5048709;28;19922;-78
2023/07/15 07:53:31;;;;;;;;;;;;;;;;;;5055829;28;19920;-76
2023/07/15 07:56:17;;;;;;;;;;;;;;;;;;5033466;28;19924;-77
2023/07/15 07:59:08;;;;;;;;;;;;;;;;;;5050599;28;19920;-78
2023/07/15 08:01:55;;;;;;;;;;;;;;;;;;5052178;28;19921;-78
2023/07/15 08:04:41;;;;;;;;;;;;;;;;;;5054048;28;19921;-77
2023/07/15 08:07:28;;;;;;;;;;;;;;;;;;5056314;28;20215;-77
2023/07/15 08:10:15;;;;;;;;;;;;;;;;;;5054257;28;19923;-77
2023/07/15 08:13:03;;;;;;;;;;;;;;;;;;5059609;28;19923;-77
2023/07/15 08:15:50;;;;;;;;;;;;;;;;;;5031408;28;19916;-78
2023/07/15 08:18:36;;;;;;;;;;;;;;;;;;5061935;28;20740;-78
2023/07/15 08:21:23;;;;;;;;;;;;;;;;;;5061843;28;19931;-76
2023/07/15 08:24:09;;;;;;;;;;;;;;;;;;5055691;28;20297;-76
2023/07/15 08:26:56;;;;;;;;;;;;;;;;;;5061673;28;19928;-77
2023/07/15 08:29:42;;;;;;;;;;;;;;;;;;5056456;28;20474;-77
2023/07/15 08:32:29;;;;;;;;;;;;;;;;;;5055690;28;19920;-77
2023/07/15 08:35:15;;;;;;;;;;;;;;;;;;5058892;28;19917;-77
2023/07/15 08:38:02;;;;;;;;;;;;;;;;;;5053754;28;19923;-77
2023/07/15 08:40:48;;;;;;;;;;;;;;;;;;5043799;28;19925;-77
2023/07/15 08:43:35;;;;;;;;;;;;;;;;;;5060744;28;19930;-75
2023/07/15 08:46:21;;;;;;;;;;;;;;;;;;5056183;28;19917;-74
2023/07/15 08:49:08;;;;;;;;;;;;;;;;;;5044158;28;19917;-75
2023/07/15 08:51:54;;;;;;;;;;;;;;;;;;5038350;28;19916;-75
2023/07/15 08:54:41;;;;;;;;;;;;;;;;;;5055565;28;19912;-75
2023/07/15 08:57:27;;;;;;;;;;;;;;;;;;5053175;28;19920;-75
2023/07/15 09:00:15;;;;;;;;;;;;;;;;;;5059541;28;19924;-75
2023/07/15 09:03:03;;;;;;;;;;;;;;;;;;5074335;28;20011;-75
2023/07/15 09:05:49;;;;;;;;;;;;;;;;;;5060706;28;19921;-76
2023/07/15 09:08:36;;;;;;;;;;;;;;;;;;5051213;28;19920;-74
2023/07/15 09:11:22;;;;;;;;;;;;;;;;;;5054908;28;19946;-76
2023/07/15 09:14:09;;;;;;;;;;;;;;;;;;5058058;28;19928;-75
2023/07/15 09:16:56;;;;;;;;;;;;;;;;;;5055594;28;19921;-74
2023/07/15 09:19:43;;;;;;;;;;;;;;;;;;5058387;28;20380;-75
2023/07/15 09:22:29;;;;;;;;;;;;;;;;;;5053821;28;20428;-76
2023/07/15 09:25:16;;;;;;;;;;;;;;;;;;5065320;28;19950;-76
2023/07/15 09:28:03;;;;;;;;;;;;;;;;;;5059463;28;20692;-75
2023/07/15 09:30:49;;;;;;;;;;;;;;;;;;5054632;28;19965;-75
2023/07/15 09:33:38;;;;;;;;;;;;;;;;;;5059645;28;19916;-75
2023/07/15 09:36:24;;;;;;;;;;;;;;;;;;5056053;28;19936;-75
2023/07/15 09:39:11;;;;;;;;;;;;;;;;;;5051569;28;19947;-76
2023/07/15 09:41:57;;;;;;;;;;;;;;;;;;5051387;28;20368;-75
2023/07/15 09:44:44;;;;;;;;;;;;;;;;;;5050660;28;19931;-75
2023/07/15 09:47:31;;;;;;;;;;;;;;;;;;5065973;28;19921;-75
2023/07/15 09:50:17;;;;;;;;;;;;;;;;;;5053482;28;19923;-75
2023/07/15 09:53:03;;;;;;;;;;;;;;;;;;5056377;28;19921;-74
2023/07/15 09:55:50;;;;;;;;;;;;;;;;;;5062629;28;19916;-74
2023/07/15 09:58:37;;;;;;;;;;;;;;;;;;5057296;28;20377;-74
2023/07/15 10:01:23;;;;;;;;;;;;;;;;;;5060219;28;19939;-75
2023/07/15 10:04:10;;;;;;;;;;;;;;;;;;5062206;28;20395;-76
2023/07/15 10:06:57;;;;;;;;;;;;;;;;;;5060690;28;19927;-74
2023/07/15 10:09:43;;;;;;;;;;;;;;;;;;5057084;28;19920;-74
2023/07/15 10:12:30;;;;;;;;;;;;;;;;;;5067080;28;19924;-74
2023/07/15 10:15:17;;;;;;;;;;;;;;;;;;5057628;28;19920;-74
2023/07/15 10:18:03;;;;;;;;;;;;;;;;;;5063546;28;19955;-74
2023/07/15 10:20:50;;;;;;;;;;;;;;;;;;5060156;28;19924;-74
2023/07/15 10:23:36;;;;;;;;;;;;;;;;;;5064226;28;19922;-74
2023/07/15 10:26:23;;;;;;;;;;;;;;;;;;5059247;28;20431;-73
2023/07/15 10:29:09;;;;;;;;;;;;;;;;;;5058786;28;19916;-74
2023/07/15 10:31:56;;;;;;;;;;;;;;;;;;5045507;28;19993;-74
2023/07/15 10:34:42;;;;;;;;;;;;;;;;;;5075427;28;19920;-74
2023/07/15 10:37:29;;;;;;;;;;;;;;;;;;5059261;28;19917;-74
2023/07/15 10:40:15;;;;;;;;;;;;;;;;;;5061864;28;20596;-74
2023/07/15 10:43:02;;;;;;;;;;;;;;;;;;5067190;28;19940;-74
2023/07/15 10:45:48;;;;;;;;;;;;;;;;;;5049832;28;19943;-74
2023/07/15 10:48:35;;;;;;;;;;;;;;;;;;5062495;28;19919;-75
2023/07/15 10:51:22;;;;;;;;;;;;;;;;;;5062034;28;20387;-74
2023/07/15 10:54:08;;;;;;;;;;;;;;;;;;5061784;28;19918;-74
2023/07/15 10:56:54;;;;;;;;;;;;;;;;;;5050060;28;20394;-74
2023/07/15 10:59:41;;;;;;;;;;;;;;;;;;5059761;28;19932;-74
2023/07/15 11:02:27;;;;;;;;;;;;;;;;;;5054826;28;19935;-73
2023/07/15 11:05:14;;;;;;;;;;;;;;;;;;5050999;28;19923;-74
2023/07/15 11:08:00;;;;;;;;;;;;;;;;;;5062575;28;19921;-74
2023/07/15 11:10:49;;;;;;;;;;;;;;;;;;5056704;28;20007;-74
2023/07/15 11:13:36;;;;;;;;;;;;;;;;;;5052729;28;19944;-74
2023/07/15 11:16:22;;;;;;;;;;;;;;;;;;5060463;28;19920;-74
2023/07/15 11:19:09;;;;;;;;;;;;;;;;;;5058298;28;19955;-73
2023/07/15 11:21:55;;;;;;;;;;;;;;;;;;5062733;28;19929;-74
2023/07/15 11:24:42;;;;;;;;;;;;;;;;;;5060399;28;20564;-74
2023/07/15 11:27:28;;;;;;;;;;;;;;;;;;5053098;28;19928;-74
2023/07/15 11:30:15;;;;;;;;;;;;;;;;;;5058097;28;19927;-74
2023/07/15 11:33:01;;;;;;;;;;;;;;;;;;5062850;28;20291;-74
2023/07/15 11:35:48;;;;;;;;;;;;;;;;;;5055889;28;19920;-75
2023/07/15 11:38:34;;;;;;;;;;;;;;;;;;5056256;28;20284;-75
2023/07/15 11:41:22;;;;;;;;;;;;;;;;;;5056371;28;19912;-74
2023/07/15 11:44:08;;;;;;;;;;;;;;;;;;5056143;28;19931;-74
2023/07/15 11:46:55;;;;;;;;;;;;;;;;;;5058090;28;19919;-74
2023/07/15 11:49:41;;;;;;;;;;;;;;;;;;5056952;28;19917;-74
2023/07/15 11:52:28;;;;;;;;;;;;;;;;;;5060233;28;19928;-74
2023/07/15 11:55:14;;;;;;;;;;;;;;;;;;5064354;28;19917;-74
2023/07/15 11:58:01;;;;;;;;;;;;;;;;;;5064757;28;20394;-74
2023/07/15 12:00:47;;;;;;;;;;;;;;;;;;5062786;28;19935;-74
2023/07/15 12:03:34;;;;;;;;;;;;;;;;;;5062103;28;19920;-74
2023/07/15 12:06:20;;;;;;;;;;;;;;;;;;5054989;28;19923;-74
2023/07/15 12:09:07;;;;;;;;;;;;;;;;;;5058922;28;20018;-74
2023/07/15 12:11:53;;;;;;;;;;;;;;;;;;5057516;28;20256;-74
2023/07/15 12:14:40;;;;;;;;;;;;;;;;;;5059141;28;19936;-75
2023/07/15 12:17:26;;;;;;;;;;;;;;;;;;5060066;28;19912;-74
2023/07/15 12:20:13;;;;;;;;;;;;;;;;;;5058016;28;19935;-73
2023/07/15 12:22:59;;;;;;;;;;;;;;;;;;5058369;28;19924;-74
2023/07/15 12:25:46;;;;;;;;;;;;;;;;;;5058849;28;19924;-74
2023/07/15 12:28:32;;;;;;;;;;;;;;;;;;5057685;28;19928;-74
2023/07/15 12:31:19;;;;;;;;;;;;;;;;;;5054356;28;19917;-74
2023/07/15 12:34:05;;;;;;;;;;;;;;;;;;5052395;28;19916;-75
2023/07/15 12:36:52;;;;;;;;;;;;;;;;;;5051323;28;19920;-74
2023/07/15 12:39:38;;;;;;;;;;;;;;;;;;5055081;28;19931;-75
2023/07/15 12:42:25;;;;;;;;;;;;;;;;;;5060959;28;20315;-75
2023/07/15 12:45:14;;;;;;;;;;;;;;;;;;5051123;28;19920;-75
2023/07/15 12:48:01;;;;;;;;;;;;;;;;;;5059300;28;19924;-74
2023/07/15 12:50:47;;;;;;;;;;;;;;;;;;5058041;28;19923;-74
2023/07/15 12:53:34;;;;;;;;;;;;;;;;;;5063404;28;20450;-75
2023/07/15 12:56:21;;;;;;;;;;;;;;;;;;5063524;28;19924;-73
2023/07/15 12:59:08;;;;;;;;;;;;;;;;;;5059233;28;20705;-74
2023/07/15 13:01:54;;;;;;;;;;;;;;;;;;5064710;28;19923;-73
2023/07/15 13:04:41;;;;;;;;;;;;;;;;;;5053910;28;20487;-74
2023/07/15 13:07:27;;;;;;;;;;;;;;;;;;5061122;28;19917;-74
2023/07/15 13:10:14;;;;;;;;;;;;;;;;;;5061249;28;19920;-74
2023/07/15 13:13:00;;;;;;;;;;;;;;;;;;5065271;28;20277;-74
2023/07/15 13:15:47;;;;;;;;;;;;;;;;;;5049143;28;19927;-73
2023/07/15 13:18:33;;;;;;;;;;;;;;;;;;5059880;28;19926;-74
2023/07/15 13:21:20;;;;;;;;;;;;;;;;;;5057903;28;19916;-74
2023/07/15 13:24:06;;;;;;;;;;;;;;;;;;5062097;28;19912;-75
2023/07/15 13:26:52;;;;;;;;;;;;;;;;;;5051433;28;19933;-77
2023/07/15 13:29:39;;;;;;;;;;;;;;;;;;5058732;28;20364;-74
2023/07/15 13:32:26;;;;;;;;;;;;;;;;;;5048788;28;19921;-75
2023/07/15 13:35:12;;;;;;;;;;;;;;;;;;5054827;28;19917;-75
2023/07/15 13:37:58;;;;;;;;;;;;;;;;;;5058262;28;19921;-75
2023/07/15 13:40:45;;;;;;;;;;;;;;;;;;5063681;28;19920;-75
2023/07/15 13:43:32;;;;;;;;;;;;;;;;;;5041868;28;20379;-77
2023/07/15 13:46:18;;;;;;;;;;;;;;;;;;5063797;28;19916;-78
2023/07/15 13:49:04;;;;;;;;;;;;;;;;;;5046962;28;20364;-77
2023/07/15 13:51:51;;;;;;;;;;;;;;;;;;5060365;28;19923;-77
2023/07/15 13:54:37;;;;;;;;;;;;;;;;;;5064497;28;19920;-78
2023/07/15 13:57:24;;;;;;;;;;;;;;;;;;5062148;28;19920;-77
2023/07/15 14:00:10;;;;;;;;;;;;;;;;;;5061048;28;20768;-78
2023/07/15 14:02:57;;;;;;;;;;;;;;;;;;5067928;28;19928;-78
2023/07/15 14:05:43;;;;;;;;;;;;;;;;;;5061021;28;19927;-78
2023/07/15 14:08:30;;;;;;;;;;;;;;;;;;5048929;28;19924;-78
2023/07/15 14:11:16;;;;;;;;;;;;;;;;;;5063301;28;19920;-79
2023/07/15 14:14:03;;;;;;;;;;;;;;;;;;5061839;28;20388;-78
2023/07/15 14:16:49;;;;;;;;;;;;;;;;;;5064427;28;19992;-78
2023/07/15 14:19:36;;;;;;;;;;;;;;;;;;5064990;28;19963;-78
2023/07/15 14:22:22;;;;;;;;;;;;;;;;;;5053971;28;19928;-79
2023/07/15 14:25:09;;;;;;;;;;;;;;;;;;5054144;28;20393;-78
2023/07/15 14:27:55;;;;;;;;;;;;;;;;;;5058229;28;19943;-78
2023/07/15 14:30:42;;;;;;;;;;;;;;;;;;5065641;28;19917;-78
2023/07/15 14:33:28;;;;;;;;;;;;;;;;;;5060724;28;20312;-79
2023/07/15 14:36:15;;;;;;;;;;;;;;;;;;5063122;28;19920;-79
2023/07/15 14:39:01;;;;;;;;;;;;;;;;;;5060451;28;19928;-78
2023/07/15 14:41:48;;;;;;;;;;;;;;;;;;5072772;28;19920;-81
2023/07/15 14:44:34;;;;;;;;;;;;;;;;;;5056992;28;19920;-80
2023/07/15 14:47:21;;;;;;;;;;;;;;;;;;5052937;28;20250;-81
2023/07/15 14:50:07;;;;;;;;;;;;;;;;;;5064136;28;19916;-79
2023/07/15 14:52:55;;;;;;;;;;;;;;;;;;5055887;28;19927;-80
2023/07/15 14:55:41;;;;;;;;;;;;;;;;;;5054492;28;19916;-74
2023/07/15 14:58:28;;;;;;;;;;;;;;;;;;5064065;28;19920;-74
2023/07/15 15:01:14;;;;;;;;;;;;;;;;;;5061363;28;19924;-74
2023/07/15 15:04:01;;;;;;;;;;;;;;;;;;5067689;28;19921;-74
2023/07/15 15:06:47;;;;;;;;;;;;;;;;;;5049896;28;19912;-73
2023/07/15 15:09:34;;;;;;;;;;;;;;;;;;5061289;28;19920;-75
2023/07/15 15:12:20;;;;;;;;;;;;;;;;;;5036919;28;19926;-75
2023/07/15 15:15:07;;;;;;;;;;;;;;;;;;5046352;28;19925;-77
2023/07/15 15:17:53;;;;;;;;;;;;;;;;;;5055991;28;19927;-76
2023/07/15 15:20:40;;;;;;;;;;;;;;;;;;5066500;28;19935;-75
2023/07/15 15:23:26;;;;;;;;;;;;;;;;;;5060955;28;19927;-74
2023/07/15 15:26:14;;;;;;;;;;;;;;;;;;5062841;28;20665;-75
2023/07/15 15:29:00;;;;;;;;;;;;;;;;;;5058241;28;19927;-74
2023/07/15 15:31:47;;;;;;;;;;;;;;;;;;5057544;28;20462;-75
2023/07/15 15:34:33;;;;;;;;;;;;;;;;;;5061165;28;19928;-76
2023/07/15 15:37:20;;;;;;;;;;;;;;;;;;5058344;28;19912;-76
2023/07/15 15:40:06;;;;;;;;;;;;;;;;;;5056748;28;19926;-76
2023/07/15 15:42:56;;;;;;;;;;;;;;;;;;5048498;28;20362;-80
2023/07/15 15:45:42;;;;;;;;;;;;;;;;;;5056879;28;19927;-74
2023/07/15 15:48:32;;;;;;;;;;;;;;;;;;5041730;28;19925;-77
2023/07/15 15:51:20;;;;;;;;;;;;;;;;;;5039040;28;19921;-74
2023/07/15 15:54:08;;;;;;;;;;;;;;;;;;5058501;28;20414;-73
2023/07/15 15:56:54;;;;;;;;;;;;;;;;;;5042331;28;19928;-74
2023/07/15 15:59:41;;;;;;;;;;;;;;;;;;5056726;28;19931;-72
2023/07/15 16:02:27;;;;;;;;;;;;;;;;;;5054462;28;19923;-73
2023/07/15 16:05:14;;;;;;;;;;;;;;;;;;5046741;28;19928;-73
2023/07/15 16:08:00;;;;;;;;;;;;;;;;;;5059271;28;19928;-73
2023/07/15 16:10:47;;;;;;;;;;;;;;;;;;5059522;28;19919;-73
2023/07/15 16:13:33;;;;;;;;;;;;;;;;;;5046326;28;20392;-73
2023/07/15 16:16:20;;;;;;;;;;;;;;;;;;5052587;28;19917;-74
2023/07/15 16:19:09;;;;;;;;;;;;;;;;;;5063407;28;19913;-74
2023/07/15 16:21:55;;;;;;;;;;;;;;;;;;5037566;28;19966;-73
2023/07/15 16:24:42;;;;;;;;;;;;;;;;;;5055621;28;19927;-74
2023/07/15 16:27:28;;;;;;;;;;;;;;;;;;5054931;28;20407;-74
2023/07/15 16:30:15;;;;;;;;;;;;;;;;;;5055068;28;19917;-73
2023/07/15 16:33:01;;;;;;;;;;;;;;;;;;5053796;28;19920;-73
2023/07/15 16:35:48;;;;;;;;;;;;;;;;;;5061670;28;19943;-73
2023/07/15 16:38:34;;;;;;;;;;;;;;;;;;5060141;28;19920;-73
2023/07/15 16:41:21;;;;;;;;;;;;;;;;;;5063144;28;19925;-73
2023/07/15 16:44:07;;;;;;;;;;;;;;;;;;5059651;28;19920;-73
2023/07/15 16:46:54;;;;;;;;;;;;;;;;;;5058827;28;19924;-73
2023/07/15 16:49:41;;;;;;;;;;;;;;;;;;5055754;28;19920;-73
2023/07/15 16:52:27;;;;;;;;;;;;;;;;;;5046089;28;19917;-74
2023/07/15 16:55:14;;;;;;;;;;;;;;;;;;5061699;28;20593;-74
2023/07/15 16:58:00;;;;;;;;;;;;;;;;;;5063080;28;20688;-74
2023/07/15 17:00:47;;;;;;;;;;;;;;;;;;5058215;28;19935;-73
2023/07/15 17:03:33;;;;;;;;;;;;;;;;;;5056011;28;20296;-74
2023/07/15 17:06:20;;;;;;;;;;;;;;;;;;5049364;28;20315;-73
2023/07/15 17:09:06;;;;;;;;;;;;;;;;;;5057144;28;19920;-74
2023/07/15 17:11:53;;;;;;;;;;;;;;;;;;5060727;28;19924;-73
2023/07/15 17:14:39;;;;;;;;;;;;;;;;;;5049068;28;19920;-74
2023/07/15 17:17:26;;;;;;;;;;;;;;;;;;5058587;28;20432;-73
2023/07/15 17:20:12;;;;;;;;;;;;;;;;;;5057282;28;20574;-73
2023/07/15 17:22:59;;;;;;;;;;;;;;;;;;5061578;28;19917;-72
2023/07/15 17:25:45;;;;;;;;;;;;;;;;;;5051245;28;19929;-73
2023/07/15 17:28:32;;;;;;;;;;;;;;;;;;5047309;28;19921;-72
2023/07/15 17:31:18;;;;;;;;;;;;;;;;;;5045595;28;19921;-74
2023/07/15 17:34:05;;;;;;;;;;;;;;;;;;5049777;28;20038;-74
2023/07/15 17:36:51;;;;;;;;;;;;;;;;;;5043360;28;19927;-74
2023/07/15 17:39:38;;;;;;;;;;;;;;;;;;5056011;28;19929;-73
2023/07/15 17:42:24;;;;;;;;;;;;;;;;;;5055889;28;20307;-74
2023/07/15 17:45:11;;;;;;;;;;;;;;;;;;5054766;28;20584;-75
2023/07/15 17:47:57;;;;;;;;;;;;;;;;;;5048874;28;19917;-74
2023/07/15 17:50:44;;;;;;;;;;;;;;;;;;5059877;28;19924;-75
2023/07/15 17:53:30;;;;;;;;;;;;;;;;;;5052541;28;19931;-77
2023/07/15 17:56:18;;;;;;;;;;;;;;;;;;5061565;28;20399;-76
2023/07/15 17:59:04;;;;;;;;;;;;;;;;;;5050128;28;19928;-77
2023/07/15 18:01:51;;;;;;;;;;;;;;;;;;5048163;28;19932;-78
2023/07/15 18:04:37;;;;;;;;;;;;;;;;;;5028419;28;19917;-76
2023/07/15 18:07:24;;;;;;;;;;;;;;;;;;5054155;28;20307;-77
2023/07/15 18:10:12;;;;;;;;;;;;;;;;;;5052461;28;19920;-77
2023/07/15 18:12:58;;;;;;;;;;;;;;;;;;5052792;28;19920;-76
2023/07/15 18:15:45;;;;;;;;;;;;;;;;;;5036129;28;20020;-76
2023/07/15 18:18:31;;;;;;;;;;;;;;;;;;5042978;28;19920;-76
2023/07/15 18:21:18;;;;;;;;;;;;;;;;;;5053900;28;19925;-76
2023/07/15 18:24:04;;;;;;;;;;;;;;;;;;5066604;28;19931;-76
2023/07/15 18:26:53;;;;;;;;;;;;;;;;;;5042863;28;19925;-74
2023/07/15 18:29:39;;;;;;;;;;;;;;;;;;5047197;28;19922;-74
2023/07/15 18:32:26;;;;;;;;;;;;;;;;;;5047793;28;20376;-74
2023/07/15 18:35:12;;;;;;;;;;;;;;;;;;5049683;28;19924;-75
2023/07/15 18:37:59;;;;;;;;;;;;;;;;;;5059368;28;20396;-75
2023/07/15 18:40:46;;;;;;;;;;;;;;;;;;5057866;28;20307;-73
2023/07/15 18:43:32;;;;;;;;;;;;;;;;;;5059354;28;19917;-73
2023/07/15 18:46:19;;;;;;;;;;;;;;;;;;5063201;28;19924;-74
2023/07/15 18:49:05;;;;;;;;;;;;;;;;;;5061127;28;19916;-74
2023/07/15 18:51:52;;;;;;;;;;;;;;;;;;5046694;28;19923;-74
2023/07/15 18:54:38;;;;;;;;;;;;;;;;;;5058676;28;19928;-74
2023/07/15 18:57:25;;;;;;;;;;;;;;;;;;5056985;28;19916;-74